Whitehall, Michigan
Current Conditions -  °F | °C
As of 3:55 AM on Friday 24 Oct 2014 (Local Time) from KMKG Reporting Station
Overcast Overcast  
Wind Chill: 50°   Ceiling: 3000
Heat Index: 50°   Visibility: 10mi
Dew Point: 44°   Wind: 5mph
Humidity: 80%   Direction: 110°ESE
Pressure: 30.04"   Gusts: NA
Location:  43.41°N, 86.35°W
Report Text: KMKG 240755Z AUTO 11004KT 10SM OVC030 10/07 A3004 RMK AO2 SLP174 T01000067 $
Loading
Personal Weather Stations






























Interactive Weather Map
Tropical Storm Tracking
New forecast layout! Learn more

10-Day Weather Forecast

Advertisements
Track Severe Weather on mobile